Gilead, Maine
Current Conditions -  °F | °C
As of 12:52 PM on Friday 21 Nov 2014 (Local Time) from KBML Reporting Station
Light Snow Light Snow  
Wind Chill: 12°   Ceiling: 3300
Heat Index: 23°   Visibility: 9mi
Dew Point:   Wind: 10mph
Humidity: 55%   Direction: 320°NW
Pressure: 30.03"   Gusts: 22mph
Location:  44.3718°N, 70.8421°W
Report Text: KBML 211752Z AUTO 32009G19KT 9SM -SN BKN033 OVC043 M05/M13 A3003 RMK AO2 UPE1657B30E34SNB1657E30B34 SLP190 P0000 60000 T10501128 11039 21067 53008
Loading
Personal Weather Stations






























Interactive Weather Map New forecast layout! Learn more

10-Day Weather Forecast

Advertisements
Track Severe Weather on mobile